Bookmark and Share
Track history (hours):
 

Stolt Shearwater

Last reported at 2014-Apr-17 17:28 UTC. Time now 2014-Apr-17 18:36 UTC.
Position N 52°29' E 002°13'.

Length 96 m; draft 6.8 m.

Type: Ship (hazmat cat C). MMSI: 319402000.

NotesDate/timePositionNaut miles runAvg speedWind from/ knotsBaromVisibWave heightAir tempDewpointWater temp
2014-Apr-17 17:28N 52°29' E 002°13'7 8.2
2014-Apr-17 16:33N 52°35' E 002°08'8 7.6
2014-Apr-17 15:33N 52°42' E 002°02'7 7.2
2014-Apr-17 14:33N 52°47' E 001°54'8 8.0
2014-Apr-17 13:33N 52°52' E 001°43'8 8.4
2014-Apr-17 12:34N 52°58' E 001°34'10 9.5
2014-Apr-17 11:33N 53°05' E 001°23'1110.1
2014-Apr-17 10:27N 53°13' E 001°11'3010.3
2014-Apr-17 07:33N 53°31' E 000°30'10 9.7
2014-Apr-17 06:33N 53°33' E 000°14'9 8.8
2014-Apr-17 05:33N 53°35' W 000°00'8 7.8
2014-Apr-17 04:33N 53°39' W 000°12'5 5.0
2014-Apr-17 03:33N 53°44' W 000°15'0 0.0
2014-Apr-17 02:26N 53°44' W 000°15'0 0.0
2014-Apr-17 01:29N 53°44' W 000°15'0 0.0
2014-Apr-17 00:32N 53°44' W 000°15'0 0.0
2014-Apr-16 23:32N 53°44' W 000°15'0 0.0
2014-Apr-16 22:05N 53°44' W 000°15'0 0.0
2014-Apr-16 21:29N 53°44' W 000°15'0 0.0
2014-Apr-16 20:20N 53°44' W 000°15'0 0.0
2014-Apr-16 19:20N 53°44' W 000°15'0 0.0
2014-Apr-16 18:32N 53°44' W 000°15'0 0.0
2014-Apr-16 17:23N 53°44' W 000°15'0 0.0
2014-Apr-16 16:23N 53°44' W 000°15'0 0.0
2014-Apr-16 15:26N 53°44' W 000°15'0 0.0
2014-Apr-16 14:26N 53°44' W 000°15'0 0.0
2014-Apr-16 13:26N 53°44' W 000°15'0 0.0
2014-Apr-16 12:26N 53°44' W 000°15'0 0.0
2014-Apr-16 11:29N 53°44' W 000°15'0 0.0
2014-Apr-16 10:32N 53°44' W 000°15'0 0.0
2014-Apr-16 09:32N 53°44' W 000°15'0 0.0
2014-Apr-16 08:29N 53°44' W 000°15'0 0.0
2014-Apr-16 07:29N 53°44' W 000°15'0 0.0
2014-Apr-16 06:20N 53°44' W 000°15'0 0.0
2014-Apr-16 05:20N 53°44' W 000°15'0 0.0
2014-Apr-16 04:23N 53°44' W 000°15'0 0.0
2014-Apr-16 03:20N 53°44' W 000°15'0 0.0
2014-Apr-16 02:33N 53°44' W 000°15'0 0.1
2014-Apr-16 01:33N 53°43' W 000°15'7 7.4
2014-Apr-16 00:33N 53°38' W 000°07'10 9.6
2014-Apr-15 23:33N 53°34' E 000°07'6 6.0
2014-Apr-15 22:33N 53°35' E 000°17'6 6.5
2014-Apr-15 21:33N 53°40' E 000°23'7 7.0
2014-Apr-15 20:33N 53°43' E 000°34'8 7.9
2014-Apr-15 19:33N 53°47' E 000°46'9 8.9
2014-Apr-15 18:33N 53°50' E 001°00'9 9.1
2014-Apr-15 17:33N 53°51' E 001°16'9 9.4
2014-Apr-15 16:33N 53°53' E 001°31'12 9.8
2014-Apr-15 15:19N 53°55' E 001°51'131 8.2
2014-Apr-14 23:30N 53°53' E 005°33'6 6.2
2014-Apr-14 22:32N 53°51' E 005°42'6 6.4
2014-Apr-14 21:33N 53°48' E 005°52'7 6.6
2014-Apr-14 20:33N 53°45' E 006°01'6 5.8
2014-Apr-14 19:32N 53°42' E 006°10'11 5.5
2014-Apr-14 17:33N 53°37' E 006°26'7 6.8
2014-Apr-14 16:30N 53°35' E 006°38'8 8.9
2014-Apr-14 15:34N 53°30' E 006°49'1212.0
2014-Apr-14 14:34N 53°20' E 006°60'1 1.3
2014-Apr-14 13:31N 53°19' E 006°58'0 0.0
2014-Apr-14 11:31N 53°19' E 006°58'0 0.0
2014-Apr-14 10:31N 53°19' E 006°58'0 0.0
2014-Apr-14 09:31N 53°19' E 006°58'0 0.0
2014-Apr-14 08:31N 53°19' E 006°58'0 0.0
2014-Apr-14 06:31N 53°19' E 006°58'0 0.0
2014-Apr-14 05:31N 53°19' E 006°58'0 0.0
2014-Apr-13 22:31N 53°19' E 006°58'0 0.0
2014-Apr-13 21:31N 53°19' E 006°58'0 0.0
2014-Apr-13 20:31N 53°19' E 006°58'0 0.0
2014-Apr-13 19:28N 53°19' E 006°58'0 0.0
2014-Apr-13 18:31N 53°19' E 006°58'0 0.0
2014-Apr-13 17:31N 53°19' E 006°58'0 0.0
2014-Apr-13 16:34N 53°19' E 006°58'4 4.4
2014-Apr-13 15:33N 53°24' E 006°57'1010.5
2014-Apr-13 14:34N 53°31' E 006°45'10 9.5
2014-Apr-13 13:33N 53°37' E 006°32'9 9.6
2014-Apr-13 12:33N 53°38' E 006°16'7 6.7
2014-Apr-13 11:28N 53°40' E 006°05'7 7.9
2014-Apr-13 10:33N 53°39' E 005°53'8 8.1
2014-Apr-13 09:33N 53°36' E 005°40'9 8.5
2014-Apr-13 08:33N 53°33' E 005°26'9 8.8
2014-Apr-13 07:33N 53°30' E 005°12'9 8.8
2014-Apr-13 06:33N 53°27' E 004°58'9 9.2
2014-Apr-13 05:33N 53°24' E 004°44'4210.0
2014-Apr-13 01:18N 52°47' E 004°10'811.1
2014-Apr-13 00:32N 52°42' E 003°59'2110.0
2014-Apr-12 22:27N 52°27' E 003°36'1210.2
2014-Apr-12 21:15N 52°15' E 003°30'27 9.5
2014-Apr-12 18:26N 51°49' E 003°18'8 8.8
2014-Apr-12 17:33N 51°41' E 003°18'1211.7
2014-Apr-12 16:33N 51°31' E 003°26'1010.4
2014-Apr-12 15:33N 51°26' E 003°41'1010.2
2014-Apr-12 14:33N 51°24' E 003°57'9 8.2
2014-Apr-12 13:30N 51°24' E 004°11'9 9.3
2014-Apr-12 12:34N 51°17' E 004°20'0 0.4
2014-Apr-12 11:34N 51°17' E 004°20'0 0.3
2014-Apr-12 10:28N 51°17' E 004°20'0 0.0
2014-Apr-12 09:31N 51°17' E 004°20'0 0.0
2014-Apr-12 08:28N 51°17' E 004°20'0 0.0
2014-Apr-12 07:28N 51°17' E 004°20'0 0.0
2014-Apr-12 06:31N 51°17' E 004°20'0 0.0
2014-Apr-12 05:31N 51°17' E 004°20'0 0.0
2014-Apr-12 04:31N 51°17' E 004°20'0 0.0
2014-Apr-12 03:31N 51°17' E 004°20'0 0.0
2014-Apr-12 02:31N 51°17' E 004°20'0 0.1
2014-Apr-12 01:31N 51°17' E 004°20'0 0.0
2014-Apr-12 00:31N 51°17' E 004°20'0 0.0
2014-Apr-11 23:31N 51°17' E 004°20'0 0.0
2014-Apr-11 22:31N 51°17' E 004°20'0 0.0
2014-Apr-11 21:28N 51°17' E 004°20'0 0.0
2014-Apr-11 20:31N 51°17' E 004°20'0 0.0
2014-Apr-11 19:25N 51°17' E 004°20'0 0.0
2014-Apr-11 18:31N 51°17' E 004°20'0 0.0
2014-Apr-11 17:28N 51°17' E 004°20'0 0.0
2014-Apr-11 16:25N 51°17' E 004°20'0 0.4
2014-Apr-11 15:33N 51°17' E 004°20'2 2.0
2014-Apr-11 14:34N 51°16' E 004°17'1 0.7
2014-Apr-11 13:31N 51°16' E 004°16'0 0.4
2014-Apr-11 12:29N 51°16' E 004°15'0 0.0
2014-Apr-11 11:29N 51°16' E 004°15'0 0.0
2014-Apr-11 10:29N 51°16' E 004°15'0 0.0
2014-Apr-11 09:29N 51°16' E 004°15'0 0.0
2014-Apr-11 08:32N 51°16' E 004°15'0 0.0
2014-Apr-11 07:26N 51°16' E 004°15'0 0.0
2014-Apr-11 06:32N 51°16' E 004°15'0 0.0
2014-Apr-11 05:32N 51°16' E 004°15'0 0.0
2014-Apr-11 04:32N 51°16' E 004°15'0 0.0
2014-Apr-11 03:23N 51°16' E 004°15'0 0.0
2014-Apr-11 02:32N 51°16' E 004°15'0 0.0
2014-Apr-11 01:29N 51°16' E 004°15'0 0.0
2014-Apr-11 00:32N 51°16' E 004°15'0 0.0
2014-Apr-10 23:29N 51°16' E 004°15'0 0.0
2014-Apr-10 22:32N 51°16' E 004°15'0 0.0
2014-Apr-10 21:29N 51°16' E 004°15'0 0.0
2014-Apr-10 20:29N 51°16' E 004°15'0 0.0
2014-Apr-10 19:23N 51°16' E 004°15'0 0.0
2014-Apr-10 18:26N 51°16' E 004°15'0 0.0
2014-Apr-10 17:26N 51°16' E 004°15'0 0.0
2014-Apr-10 16:29N 51°16' E 004°15'0 0.0
2014-Apr-10 15:32N 51°16' E 004°15'1 0.9
2014-Apr-10 14:34N 51°16' E 004°17'2 1.7
2014-Apr-10 13:34N 51°17' E 004°19'8 8.4
2014-Apr-10 12:33N 51°24' E 004°12'7 7.4
2014-Apr-10 11:33N 51°26' E 004°01'10 9.5
2014-Apr-10 10:33N 51°21' E 003°48'1110.8
2014-Apr-10 09:33N 51°27' E 003°33'1010.1
2014-Apr-10 08:33N 51°35' E 003°23'1010.3
2014-Apr-10 07:33N 51°44' E 003°15'9 8.6
2014-Apr-10 06:33N 51°47' E 003°02'46 8.7
2014-Apr-10 01:12N 52°24' E 002°17'7 9.1
2014-Apr-10 00:24N 52°31' E 002°12'7 8.8
2014-Apr-09 23:33N 52°37' E 002°06'8 8.0
2014-Apr-09 22:33N 52°45' E 002°00'8 8.1
2014-Apr-09 21:34N 52°49' E 001°49'8 8.1
2014-Apr-09 20:33N 52°54' E 001°39'9 8.7
2014-Apr-09 19:33N 53°01' E 001°29'10 9.5
2014-Apr-09 18:33N 53°08' E 001°19'33 9.9
2014-Apr-09 15:14N 53°28' E 000°36'7 9.7
2014-Apr-09 14:33N 53°32' E 000°26'9 9.2
2014-Apr-09 13:33N 53°33' E 000°11'10 9.8
2014-Apr-09 12:33N 53°37' W 000°04'8 8.2
2014-Apr-09 11:33N 53°42' W 000°14'1 0.9
2014-Apr-09 10:10N 53°44' W 000°15'0 0.0
2014-Apr-09 09:13N 53°44' W 000°15'0 0.0
2014-Apr-09 07:31N 53°44' W 000°15'0 0.0
2014-Apr-09 05:31N 53°44' W 000°15'0 0.0
2014-Apr-09 04:19N 53°44' W 000°15'0 0.0
2014-Apr-09 03:31N 53°44' W 000°15'0 0.0
2014-Apr-09 02:19N 53°44' W 000°15'0 0.0
2014-Apr-09 01:07N 53°44' W 000°15'0 0.0
2014-Apr-09 00:22N 53°44' W 000°15'0 0.0
2014-Apr-08 23:25N 53°44' W 000°15'0 0.0
2014-Apr-08 22:22N 53°44' W 000°15'0 0.0
2014-Apr-08 21:22N 53°44' W 000°15'0 0.0
2014-Apr-08 20:25N 53°44' W 000°15'0 0.0
2014-Apr-08 19:13N 53°44' W 000°15'0 0.0
2014-Apr-08 18:28N 53°44' W 000°15'0 0.0
2014-Apr-08 17:25N 53°44' W 000°15'0 0.0
2014-Apr-08 16:16N 53°44' W 000°15'0 0.0
2014-Apr-08 15:28N 53°44' W 000°15'0 0.0
2014-Apr-08 14:16N 53°44' W 000°15'0 0.0
2014-Apr-08 13:31N 53°44' W 000°15'0 0.0
2014-Apr-08 12:22N 53°44' W 000°15'0 0.0
2014-Apr-08 11:31N 53°44' W 000°15'0 0.0
2014-Apr-08 10:19N 53°44' W 000°15'0 0.0
2014-Apr-08 09:20N 53°44' W 000°15'5 6.6
2014-Apr-08 08:33N 53°39' W 000°11'1111.0
2014-Apr-08 07:33N 53°34' E 000°05'9 8.8
2014-Apr-08 06:33N 53°33' E 000°20'7 6.6
2014-Apr-08 05:33N 53°31' E 000°31'35 7.0
2014-Apr-08 00:33N 53°14' E 001°22'7 7.3
2014-Apr-07 23:33N 53°12' E 001°33'7 6.8
2014-Apr-07 22:33N 53°10' E 001°44'1 1.3
2014-Apr-07 21:33N 53°10' E 001°46'7 6.8
2014-Apr-07 20:34N 53°06' E 001°55'9 8.6
2014-Apr-07 19:33N 53°00' E 002°06'  

Dump ship's entire track history

sailing weather and tide predictions

Stolt Shearwater — ZCRD9 — position and weather